コモドロリバダビア の空港の天気 - METARとTAF

Comodoro Rivadavia Aerodrome ( SAVC / CRD ) - アルゼンチン チュブ州コモドロリバダビア
飛行場実況気象(Metar)
観測時間11/27 05:00 ART (11/27 08:00 UTC)
風向・風速北西 2m/s
視程10km以上
天気現象
なし
気温10℃
湿度82%
気圧1021hPa
METARSAVC 270800Z 31003KT 260V030 CAVOK 10/07 Q1021 RMK PP000
過去の天気等 Google飛行場航空写真 Wunderground天気予報

過去48時間のMETAR

飛行場予報(TAF)
発表時間: 11/27 02:00 ART (11/27 05:00 UTC)
予報対象時間: 27日3時 ART ~ 28日3時 ART
風向・風速北北西 3m/s
視程10km以上
なし
27日11時 ART ~ 27日13時 ART に徐々に
風向・風速東北東 8m/s
視程10km以上
全天の4割程度の雲 雲底高度 760m
27日23時 ART ~ 28日1時 ART に徐々に
風向・風速南 5m/s
TAF SAVC 270500Z 2706/2806 34005KT CAVOK TX24/2718Z TN06/2710Z
BECMG 2714/2716 07015KT 9999 SCT025
BECMG 2802/2804 18010KT